createdAt,value
2019-03-27T00:00:01.054Z,1.10
2019-03-27T00:05:01.069Z,1.11
2019-03-27T00:10:01.383Z,1.14
2019-03-27T00:15:11.926Z,1.17
2019-03-27T00:20:01.063Z,1.20
2019-03-27T00:25:01.072Z,1.20
2019-03-27T00:30:01.062Z,1.25
2019-03-27T00:35:01.068Z,1.27
2019-03-27T00:40:01.065Z,1.27
2019-03-27T00:45:01.074Z,1.30
2019-03-27T00:50:01.043Z,1.41
2019-03-27T00:55:01.407Z,1.43
2019-03-27T01:00:01.056Z,1.38
2019-03-27T01:05:01.428Z,1.32
2019-03-27T01:10:01.054Z,1.32
2019-03-27T01:15:01.086Z,1.31
2019-03-27T01:20:01.135Z,1.33
2019-03-27T01:25:01.037Z,1.35
2019-03-27T01:30:01.482Z,1.29
2019-03-27T01:35:01.041Z,1.27
2019-03-27T01:40:01.051Z,1.10
2019-03-27T01:45:01.076Z,0.81
2019-03-27T01:50:01.073Z,0.58
2019-03-27T01:55:01.466Z,0.48
2019-03-27T02:00:01.051Z,0.31
2019-03-27T02:05:01.480Z,0.29
2019-03-27T02:10:01.175Z,0.18
2019-03-27T02:15:01.082Z,0.02
2019-03-27T02:20:01.062Z,-0.11
2019-03-27T02:25:01.073Z,-0.11
2019-03-27T02:30:01.059Z,-0.20
2019-03-27T03:05:01.067Z,-0.26
2019-03-27T03:10:01.491Z,-0.23
2019-03-27T03:15:01.072Z,-0.18
2019-03-27T03:20:01.090Z,0.00
2019-03-27T03:25:01.760Z,0.11
2019-03-27T03:30:01.028Z,0.08
2019-03-27T03:35:01.150Z,0.01
2019-03-27T03:40:01.348Z,0.02
2019-03-27T03:45:01.382Z,0.04
2019-03-27T03:50:01.066Z,0.01
2019-03-27T03:55:01.352Z,0.08
2019-03-27T04:00:01.482Z,0.07
2019-03-27T04:05:01.066Z,0.03
2019-03-27T04:10:01.063Z,0.01
2019-03-27T04:15:01.131Z,0.01
2019-03-27T04:20:01.405Z,0.12
2019-03-27T04:25:01.055Z,0.19
2019-03-27T04:30:01.140Z,0.14
2019-03-27T04:35:01.110Z,0.11
2019-03-27T04:40:01.689Z,0.14
2019-03-27T04:45:01.035Z,0.15
2019-03-27T04:50:01.387Z,0.22
2019-03-27T04:55:01.044Z,0.25
2019-03-27T05:00:01.047Z,0.29
2019-03-27T05:05:01.048Z,0.35
2019-03-27T05:10:01.504Z,0.42
2019-03-27T05:15:01.051Z,0.49
2019-03-27T05:20:01.054Z,0.62
2019-03-27T05:25:01.379Z,0.74
2019-03-27T05:30:01.085Z,0.87
2019-03-27T05:35:01.039Z,0.95
2019-03-27T05:40:01.587Z,1.05
2019-03-27T05:45:01.053Z,1.17
2019-03-27T05:50:01.084Z,1.26
2019-03-27T05:55:01.542Z,1.41
2019-03-27T06:00:01.041Z,1.56
2019-03-27T06:05:01.034Z,1.69
2019-03-27T06:10:01.047Z,1.85
2019-03-27T06:15:01.042Z,1.98
2019-03-27T06:20:01.479Z,2.03
2019-03-27T06:25:01.042Z,2.13
2019-03-27T06:30:01.052Z,2.29
2019-03-27T06:35:01.028Z,2.43
2019-03-27T06:40:01.040Z,2.54
2019-03-27T06:45:01.421Z,2.73
2019-03-27T06:50:01.027Z,3.04
2019-03-27T06:55:01.479Z,3.41
2019-03-27T07:00:01.052Z,3.77
2019-03-27T07:05:01.068Z,3.91
2019-03-27T07:10:01.367Z,4.19
2019-03-27T07:15:01.037Z,4.37
2019-03-27T07:20:01.420Z,4.62
2019-03-27T07:25:01.062Z,4.87
2019-03-27T07:30:01.072Z,5.13
2019-03-27T07:35:01.052Z,5.46
2019-03-27T07:40:01.055Z,5.77
2019-03-27T07:45:01.367Z,6.04
2019-03-27T07:50:01.033Z,6.20
2019-03-27T07:55:01.022Z,6.43
2019-03-27T08:00:01.080Z,6.40
2019-03-27T08:05:01.718Z,6.39
2019-03-27T08:10:01.027Z,6.53
2019-03-27T08:15:01.072Z,6.84
2019-03-27T08:20:01.442Z,6.91
2019-03-27T08:25:01.049Z,6.84
2019-03-27T08:30:01.048Z,6.93
2019-03-27T08:35:01.507Z,7.29
2019-03-27T08:40:01.505Z,7.33
2019-03-27T08:45:01.535Z,7.36
2019-03-27T08:50:01.054Z,7.37
2019-03-27T08:55:01.382Z,7.50
2019-03-27T09:00:02.717Z,7.59
2019-03-27T09:05:01.038Z,7.83
2019-03-27T09:10:01.063Z,8.15
2019-03-27T09:15:01.514Z,8.14
2019-03-27T09:20:01.071Z,8.24
2019-03-27T09:25:01.096Z,7.67
2019-03-27T09:30:01.380Z,7.72
2019-03-27T09:35:01.194Z,8.09
2019-03-27T09:40:01.336Z,8.15
2019-03-27T09:45:01.041Z,8.14
2019-03-27T09:50:01.079Z,8.08
2019-03-27T09:55:01.054Z,7.49
2019-03-27T10:00:01.412Z,7.51
2019-03-27T10:05:01.051Z,7.68
2019-03-27T10:10:01.087Z,7.63
2019-03-27T10:15:01.558Z,7.37
2019-03-27T10:20:03.605Z,7.30
2019-03-27T10:25:01.534Z,7.43
2019-03-27T10:30:01.064Z,7.55
2019-03-27T10:35:01.088Z,7.60
2019-03-27T10:40:01.454Z,7.69
2019-03-27T10:45:01.078Z,7.56
2019-03-27T10:50:01.042Z,7.64
2019-03-27T10:55:01.466Z,7.76
2019-03-27T11:00:01.055Z,8.06
2019-03-27T11:05:01.099Z,8.30
2019-03-27T11:10:01.385Z,7.98
2019-03-27T11:15:01.070Z,7.90
2019-03-27T11:20:01.081Z,7.61
2019-03-27T11:25:01.056Z,7.51
2019-03-27T11:30:01.042Z,7.57
2019-03-27T11:35:01.570Z,7.34
2019-03-27T11:40:01.047Z,7.35
2019-03-27T11:45:01.049Z,7.34
2019-03-27T11:50:01.069Z,7.34
2019-03-27T11:55:01.033Z,7.30
2019-03-27T12:00:01.078Z,7.22
2019-03-27T12:05:01.022Z,7.31
2019-03-27T12:10:01.032Z,7.57
2019-03-27T12:15:01.054Z,7.71
2019-03-27T12:20:01.040Z,7.63
2019-03-27T12:25:01.067Z,7.57
2019-03-27T12:30:01.176Z,7.53
2019-03-27T12:35:01.079Z,7.43
2019-03-27T12:40:01.067Z,7.53
2019-03-27T12:45:01.952Z,7.76
2019-03-27T12:50:01.103Z,7.91
2019-03-27T12:55:01.154Z,8.25
2019-03-27T13:00:01.112Z,8.42
2019-03-27T13:05:01.109Z,8.39
2019-03-27T13:10:01.176Z,8.34
2019-03-27T13:15:01.030Z,8.57
2019-03-27T13:20:01.034Z,8.59
2019-03-27T13:25:01.089Z,8.43
2019-03-27T13:30:01.109Z,8.69
2019-03-27T13:35:01.340Z,8.64
2019-03-27T13:40:01.198Z,9.08
2019-03-27T13:45:01.028Z,9.15
2019-03-27T13:50:01.067Z,9.08
2019-03-27T13:55:01.052Z,8.97
2019-03-27T14:00:01.050Z,8.91
2019-03-27T14:05:01.240Z,9.16
2019-03-27T14:10:01.028Z,9.62
2019-03-27T14:15:01.066Z,9.85
2019-03-27T14:20:01.068Z,9.87
2019-03-27T14:25:01.560Z,9.76
2019-03-27T14:30:01.030Z,9.26
2019-03-27T14:35:01.094Z,9.45
2019-03-27T14:40:01.065Z,9.74
2019-03-27T14:45:01.338Z,9.60
2019-03-27T14:50:01.749Z,9.51
2019-03-27T14:55:03.294Z,9.54
2019-03-27T15:00:01.031Z,9.56
2019-03-27T15:05:01.113Z,9.60
2019-03-27T15:10:01.081Z,9.54
2019-03-27T15:15:01.728Z,9.40
2019-03-27T15:20:01.056Z,9.36
2019-03-27T15:25:01.394Z,9.34
2019-03-27T15:30:01.023Z,9.24
2019-03-27T15:35:01.399Z,9.14
2019-03-27T15:40:01.077Z,9.01
2019-03-27T15:45:01.376Z,8.94
2019-03-27T15:50:01.028Z,8.92
2019-03-27T15:55:01.414Z,8.83
2019-03-27T16:00:01.055Z,8.78
2019-03-27T16:05:01.059Z,8.75
2019-03-27T16:10:01.070Z,8.77
2019-03-27T16:15:01.094Z,8.78
2019-03-27T16:20:01.057Z,8.65
2019-03-27T16:25:01.076Z,8.43
2019-03-27T16:30:01.074Z,8.24
2019-03-27T16:35:01.051Z,8.10
2019-03-27T16:40:01.080Z,8.11
2019-03-27T16:45:01.202Z,8.04
2019-03-27T16:50:01.057Z,7.92
2019-03-27T16:55:01.435Z,7.78
2019-03-27T17:00:01.425Z,7.73
2019-03-27T17:05:01.051Z,7.72
2019-03-27T17:10:01.149Z,7.79
2019-03-27T17:15:01.051Z,7.71
2019-03-27T17:20:01.471Z,7.71
2019-03-27T17:25:01.030Z,7.71
2019-03-27T17:30:01.067Z,7.68
2019-03-27T17:35:01.089Z,7.64
2019-03-27T17:40:01.511Z,7.52
2019-03-27T17:45:01.018Z,7.40
2019-03-27T17:50:01.057Z,7.36
2019-03-27T17:55:01.053Z,7.30
2019-03-27T18:00:01.387Z,7.29
2019-03-27T18:05:01.038Z,7.03
2019-03-27T18:10:01.051Z,6.89
2019-03-27T18:15:01.057Z,6.68
2019-03-27T18:20:01.041Z,6.52
2019-03-27T18:25:01.045Z,6.36
2019-03-27T18:30:01.067Z,6.13
2019-03-27T18:35:01.061Z,5.95
2019-03-27T18:40:01.039Z,5.86
2019-03-27T18:45:01.343Z,5.99
2019-03-27T18:50:01.085Z,5.88
2019-03-27T18:55:01.532Z,5.55
2019-03-27T19:00:01.080Z,5.48
2019-03-27T19:05:01.573Z,5.16
2019-03-27T19:10:01.490Z,4.59
2019-03-27T19:15:01.215Z,4.11
2019-03-27T19:20:01.179Z,3.73
2019-03-27T19:25:01.497Z,3.37
2019-03-27T19:30:01.081Z,3.33
2019-03-27T19:35:01.045Z,3.06
2019-03-27T19:40:01.792Z,2.91
2019-03-27T19:45:01.529Z,2.57
2019-03-27T19:50:01.062Z,2.41
2019-03-27T19:55:01.615Z,2.15
2019-03-27T20:00:09.878Z,1.93
2019-03-27T20:05:02.531Z,1.85
2019-03-27T20:10:01.157Z,1.60
2019-03-27T20:15:11.317Z,1.56
2019-03-27T20:20:01.081Z,1.44
2019-03-27T20:25:01.207Z,1.24
2019-03-27T20:30:01.057Z,1.21
2019-03-27T20:35:01.119Z,1.14
2019-03-27T20:40:01.515Z,1.06
2019-03-27T20:45:01.067Z,0.81
2019-03-27T20:50:01.110Z,0.69
2019-03-27T20:55:01.179Z,0.49
2019-03-27T21:00:02.612Z,0.25
2019-03-27T21:05:01.079Z,-0.01
2019-03-27T21:10:01.396Z,-0.16
2019-03-27T21:15:01.447Z,-0.26
2019-03-27T21:20:01.389Z,-0.37
2019-03-27T21:25:08.804Z,-0.47
2019-03-27T21:30:01.413Z,-0.49
2019-03-27T21:35:01.083Z,-0.51
2019-03-27T21:40:01.050Z,-0.54
2019-03-27T21:45:01.624Z,-0.63
2019-03-27T21:50:01.111Z,-0.72
2019-03-27T21:55:01.050Z,-0.74
2019-03-27T22:00:01.119Z,-0.86
2019-03-27T22:05:01.119Z,-0.75
2019-03-27T22:10:01.538Z,-0.85
2019-03-27T22:15:01.056Z,-0.88
2019-03-27T22:20:01.541Z,-0.95
2019-03-27T22:25:01.071Z,-0.88
2019-03-27T22:30:01.084Z,-0.92
2019-03-27T22:35:01.046Z,-1.10
2019-03-27T22:40:01.060Z,-1.25
2019-03-27T22:45:01.034Z,-1.40
2019-03-27T22:50:01.027Z,-1.52
2019-03-27T22:55:01.069Z,-1.52
2019-03-27T23:00:01.077Z,-1.54
2019-03-27T23:05:01.094Z,-1.50
2019-03-27T23:10:01.063Z,-1.39
2019-03-27T23:15:01.459Z,-1.38
2019-03-27T23:20:01.109Z,-1.40
2019-03-27T23:25:01.545Z,-1.35
2019-03-27T23:30:01.037Z,-1.40
2019-03-27T23:35:01.362Z,-1.54
2019-03-27T23:40:01.049Z,-1.63
2019-03-27T23:45:01.039Z,-1.67
2019-03-27T23:50:01.383Z,-1.70
2019-03-27T23:55:01.033Z,-1.87
